createdAt,value
2022-11-22T00:00:22.835Z,99092.47
2022-11-22T00:02:49.371Z,99103.84
2022-11-22T00:05:16.065Z,99101.47
2022-11-22T00:07:42.607Z,99102.66
2022-11-22T00:10:11.177Z,99104.22
2022-11-22T00:12:37.774Z,99103.44
2022-11-22T00:15:05.541Z,99110.88
2022-11-22T00:17:32.629Z,99114.00
2022-11-22T00:19:59.244Z,99123.41
2022-11-22T00:22:25.851Z,99119.06
2022-11-22T00:24:52.788Z,99112.78
2022-11-22T00:27:20.253Z,99112.41
2022-11-22T00:29:46.869Z,99114.00
2022-11-22T00:32:13.937Z,99105.34
2022-11-22T00:34:40.645Z,99101.00
2022-11-22T00:37:07.189Z,99104.16
2022-11-22T00:39:33.745Z,99099.03
2022-11-22T00:42:00.381Z,99108.81
2022-11-22T00:44:27.142Z,99112.75
2022-11-22T00:46:53.736Z,99105.69
2022-11-22T00:49:20.211Z,99115.88
2022-11-22T00:51:46.764Z,99120.94
2022-11-22T00:54:13.358Z,99129.94
2022-11-22T00:56:39.915Z,99115.03
2022-11-22T00:59:06.441Z,99125.63
2022-11-22T01:01:33.051Z,99108.31
2022-11-22T01:03:59.675Z,99109.13
2022-11-22T01:06:26.232Z,99113.06
2022-11-22T01:08:52.762Z,99101.69
2022-11-22T01:11:19.453Z,99122.06
2022-11-22T01:13:46.016Z,99114.16
2022-11-22T01:16:16.476Z,99118.09
2022-11-22T01:18:43.608Z,99125.19
2022-11-22T01:21:10.184Z,99125.94
2022-11-22T01:23:37.471Z,99114.59
2022-11-22T01:26:08.777Z,99101.59
2022-11-22T01:28:36.076Z,99111.03
2022-11-22T01:31:03.352Z,99120.41
2022-11-22T01:33:29.889Z,99127.47
2022-11-22T01:35:58.177Z,99125.88
2022-11-22T01:38:25.374Z,99132.53
2022-11-22T01:40:52.339Z,99126.63
2022-11-22T01:43:25.120Z,99119.59
2022-11-22T01:45:57.383Z,99110.19
2022-11-22T01:48:26.913Z,99125.50
2022-11-22T01:51:03.036Z,99122.75
2022-11-22T01:53:38.980Z,99115.75
2022-11-22T01:56:10.107Z,99120.47
2022-11-22T01:58:41.355Z,99110.22
2022-11-22T02:01:08.368Z,99101.63
2022-11-22T02:03:37.625Z,99118.06
2022-11-22T02:06:04.963Z,99111.38
2022-11-22T02:08:42.060Z,99121.56
2022-11-22T02:11:09.944Z,99127.47
2022-11-22T02:13:40.851Z,99131.31
2022-11-22T02:16:07.785Z,99127.41
2022-11-22T02:18:36.174Z,99122.31
2022-11-22T02:21:03.632Z,99128.22
2022-11-22T02:23:45.616Z,99127.81
2022-11-22T02:26:13.147Z,99129.34
2022-11-22T02:28:41.133Z,99136.00
2022-11-22T02:31:07.889Z,99138.72
2022-11-22T02:33:34.891Z,99142.63
2022-11-22T02:36:02.116Z,99135.53
2022-11-22T02:38:35.140Z,99135.56
2022-11-22T02:41:10.787Z,99138.69
2022-11-22T02:43:40.193Z,99138.28
2022-11-22T02:46:09.054Z,99134.38
2022-11-22T02:48:41.239Z,99132.75
2022-11-22T02:51:07.994Z,99128.84
2022-11-22T02:53:34.505Z,99132.41
2022-11-22T02:56:01.125Z,99128.09
2022-11-22T02:58:27.649Z,99121.78
2022-11-22T03:00:54.271Z,99136.66
2022-11-22T03:03:20.919Z,99131.16
2022-11-22T03:05:47.519Z,99131.13
2022-11-22T03:08:13.994Z,99142.47
2022-11-22T03:10:40.569Z,99150.69
2022-11-22T03:13:07.041Z,99138.09
2022-11-22T03:15:33.542Z,99138.88
2022-11-22T03:18:01.987Z,99138.47
2022-11-22T03:20:28.900Z,99117.66
2022-11-22T03:22:55.572Z,99133.31
2022-11-22T03:25:22.194Z,99123.56
2022-11-22T03:27:49.318Z,99138.38
2022-11-22T03:30:17.548Z,99132.53
2022-11-22T03:32:44.198Z,99132.50
2022-11-22T03:35:11.545Z,99131.66
2022-11-22T03:37:38.387Z,99143.03
2022-11-22T03:40:05.749Z,99148.84
2022-11-22T03:42:32.324Z,99155.47
2022-11-22T03:44:58.799Z,99153.88
2022-11-22T03:47:25.343Z,99151.44
2022-11-22T03:49:51.922Z,99160.47
2022-11-22T03:52:18.408Z,99141.97
2022-11-22T03:54:45.024Z,99170.31
2022-11-22T03:57:11.599Z,99169.84
2022-11-22T03:59:38.136Z,99168.28
2022-11-22T04:02:04.716Z,99181.53
2022-11-22T04:04:31.347Z,99181.84
2022-11-22T04:06:57.944Z,99169.78
2022-11-22T04:09:24.503Z,99169.03
2022-11-22T04:11:51.144Z,99165.81
2022-11-22T04:14:36.266Z,99174.75
2022-11-22T04:17:02.971Z,99168.75
2022-11-22T04:19:29.713Z,99168.38
2022-11-22T04:21:56.499Z,99175.91
2022-11-22T04:24:41.700Z,99174.69
2022-11-22T04:27:08.205Z,99171.13
2022-11-22T04:29:34.754Z,99175.75
2022-11-22T04:32:20.263Z,99173.00
2022-11-22T04:34:46.756Z,99178.50
2022-11-22T04:37:13.242Z,99181.31
2022-11-22T04:39:39.859Z,99182.88
2022-11-22T04:42:24.999Z,99184.41
2022-11-22T04:44:51.596Z,99189.94
2022-11-22T04:47:38.249Z,99188.00
2022-11-22T04:50:26.061Z,99179.00
2022-11-22T04:53:01.627Z,99192.41
2022-11-22T04:55:28.132Z,99191.69
2022-11-22T04:57:59.732Z,99195.22
2022-11-22T05:00:28.428Z,99190.09
2022-11-22T05:02:55.230Z,99186.22
2022-11-22T05:05:22.201Z,99178.78
2022-11-22T05:07:48.817Z,99182.34
2022-11-22T05:10:15.759Z,99183.13
2022-11-22T05:12:42.849Z,99182.34
2022-11-22T05:15:11.396Z,99181.16
2022-11-22T05:17:38.833Z,99180.78
2022-11-22T05:20:07.976Z,99173.66
2022-11-22T05:22:53.195Z,99176.88
2022-11-22T05:25:25.288Z,99166.72
2022-11-22T05:27:54.291Z,99160.44
2022-11-22T05:30:20.816Z,99164.72
2022-11-22T05:32:47.345Z,99163.13
2022-11-22T05:35:13.949Z,99164.69
2022-11-22T05:37:40.550Z,99163.88
2022-11-22T05:40:07.854Z,99171.31
2022-11-22T05:42:34.507Z,99160.34
2022-11-22T05:45:01.134Z,99174.81
2022-11-22T05:47:27.673Z,99180.72
2022-11-22T05:49:54.230Z,99177.22
2022-11-22T05:52:20.857Z,99171.06
2022-11-22T05:54:47.420Z,99173.06
2022-11-22T05:57:14.037Z,99173.81
2022-11-22T05:59:44.104Z,99168.31
2022-11-22T06:02:11.761Z,99175.41
2022-11-22T06:04:38.307Z,99176.22
2022-11-22T06:07:09.815Z,99173.47
2022-11-22T06:09:37.227Z,99170.34
2022-11-22T06:12:04.268Z,99169.63
2022-11-22T06:14:30.915Z,99163.09
2022-11-22T06:16:57.610Z,99164.63
2022-11-22T06:19:24.180Z,99155.53
2022-11-22T06:21:50.701Z,99169.34
2022-11-22T06:24:17.361Z,99156.75
2022-11-22T06:26:44.058Z,99163.13
2022-11-22T06:29:10.751Z,99165.47
2022-11-22T06:31:37.298Z,99167.09
2022-11-22T06:34:03.863Z,99168.25
2022-11-22T06:36:32.463Z,99163.16
2022-11-22T06:38:59.691Z,99161.22
2022-11-22T06:41:31.143Z,99167.50
2022-11-22T06:43:57.708Z,99174.16
2022-11-22T06:46:26.002Z,99166.34
2022-11-22T06:48:53.182Z,99167.91
2022-11-22T06:51:22.508Z,99175.38
2022-11-22T06:53:50.842Z,99172.25
2022-11-22T06:56:23.080Z,99160.50
2022-11-22T06:58:51.377Z,99181.31
2022-11-22T07:01:22.408Z,99179.72
2022-11-22T07:03:49.950Z,99170.31
2022-11-22T07:06:18.673Z,99179.81
2022-11-22T07:08:46.549Z,99171.50
2022-11-22T07:11:17.144Z,99162.13
2022-11-22T07:13:43.884Z,99173.50
2022-11-22T07:16:12.173Z,99172.75
2022-11-22T07:18:39.450Z,99172.00
2022-11-22T07:21:13.795Z,99170.06
2022-11-22T07:23:45.430Z,99172.38
2022-11-22T07:26:13.700Z,99182.94
2022-11-22T07:28:40.487Z,99171.50
2022-11-22T07:31:08.682Z,99178.59
2022-11-22T07:33:35.732Z,99186.06
2022-11-22T07:36:09.987Z,99186.03
2022-11-22T07:38:37.257Z,99184.84
2022-11-22T07:41:04.815Z,99183.66
2022-11-22T07:43:32.019Z,99161.38
2022-11-22T07:46:00.036Z,99179.00
2022-11-22T07:48:26.676Z,99171.56
2022-11-22T07:50:53.319Z,99178.66
2022-11-22T07:53:20.418Z,99176.25
2022-11-22T07:55:47.114Z,99170.38
2022-11-22T07:58:13.665Z,99178.28
2022-11-22T08:00:40.326Z,99178.28
2022-11-22T08:03:12.285Z,99180.28
2022-11-22T08:05:42.294Z,99178.28
2022-11-22T08:08:08.836Z,99183.72
2022-11-22T08:10:35.426Z,99194.66
2022-11-22T08:13:01.945Z,99196.25
2022-11-22T08:15:28.659Z,99193.09
2022-11-22T08:17:55.234Z,99199.31
2022-11-22T08:20:21.841Z,99196.94
2022-11-22T08:22:48.429Z,99201.69
2022-11-22T08:25:15.121Z,99211.88
2022-11-22T08:27:43.608Z,99214.25
2022-11-22T08:30:11.740Z,99218.50
2022-11-22T08:32:38.971Z,99210.41
2022-11-22T08:35:06.112Z,99209.53
2022-11-22T08:37:32.709Z,99216.69
2022-11-22T08:39:59.278Z,99220.63
2022-11-22T08:42:25.894Z,99217.88
2022-11-22T08:44:52.414Z,99220.63
2022-11-22T08:47:18.958Z,99226.47
2022-11-22T08:49:45.553Z,99222.63
2022-11-22T08:52:12.466Z,99222.97
2022-11-22T08:54:39.114Z,99220.66
2022-11-22T08:57:05.725Z,99219.50
2022-11-22T08:59:33.281Z,99219.53
2022-11-22T09:02:00.492Z,99218.75
2022-11-22T09:04:27.224Z,99217.22
2022-11-22T09:09:40.510Z,99210.56
2022-11-22T09:12:07.500Z,99212.50
2022-11-22T09:14:34.212Z,99204.69
2022-11-22T09:17:00.865Z,99214.13
2022-11-22T09:19:27.463Z,99217.72
2022-11-22T09:21:54.004Z,99219.66
2022-11-22T09:24:20.620Z,99213.38
2022-11-22T09:26:47.213Z,99218.06
2022-11-22T09:29:15.720Z,99214.19
2022-11-22T09:31:43.043Z,99211.84
2022-11-22T09:34:09.585Z,99209.88
2022-11-22T09:36:36.463Z,99218.47
2022-11-22T09:39:03.134Z,99215.72
2022-11-22T09:41:48.322Z,99223.56
2022-11-22T09:44:18.023Z,99223.22
2022-11-22T09:46:55.662Z,99225.19
2022-11-22T09:49:44.423Z,99227.94
2022-11-22T09:52:17.882Z,99226.38
2022-11-22T09:54:51.216Z,99222.44
2022-11-22T09:57:23.595Z,99209.16
2022-11-22T09:59:56.981Z,99212.25
2022-11-22T10:02:43.391Z,99193.13
2022-11-22T10:05:30.851Z,99189.59
2022-11-22T10:08:04.512Z,99186.47
2022-11-22T10:10:44.304Z,99176.31
2022-11-22T10:13:31.171Z,99174.78
2022-11-22T10:16:13.077Z,99181.03
2022-11-22T10:18:51.250Z,99195.91
2022-11-22T10:21:19.757Z,99197.09
2022-11-22T10:23:47.652Z,99211.59
2022-11-22T10:26:23.009Z,99196.69
2022-11-22T10:29:18.064Z,99204.53
2022-11-22T10:31:54.863Z,99211.25
2022-11-22T10:34:24.289Z,99213.63
2022-11-22T10:37:04.577Z,99195.56
2022-11-22T10:39:43.176Z,99203.09
2022-11-22T10:42:26.719Z,99204.19
2022-11-22T10:45:05.627Z,99201.44
2022-11-22T10:47:49.412Z,99210.47
2022-11-22T10:50:39.392Z,99204.56
2022-11-22T10:53:33.599Z,99207.72
2022-11-22T10:56:29.071Z,99202.59
2022-11-22T10:59:33.569Z,99206.16
2022-11-22T11:02:26.276Z,99186.53
2022-11-22T11:04:54.995Z,99198.72
2022-11-22T11:07:24.574Z,99184.22
2022-11-22T11:10:11.654Z,99186.63
2022-11-22T11:12:45.755Z,99190.09
2022-11-22T11:15:18.445Z,99183.47
2022-11-22T11:17:49.743Z,99184.25
2022-11-22T11:20:25.298Z,99184.25
2022-11-22T11:23:13.751Z,99183.47
2022-11-22T11:25:40.602Z,99188.19
2022-11-22T11:28:20.244Z,99193.25
2022-11-22T11:31:06.716Z,99179.50
2022-11-22T11:33:37.960Z,99182.69
2022-11-22T11:36:11.823Z,99176.41
2022-11-22T11:38:41.350Z,99172.47
2022-11-22T11:41:18.679Z,99163.47
2022-11-22T11:43:46.392Z,99159.16
2022-11-22T11:46:26.880Z,99172.47
2022-11-22T11:48:55.900Z,99171.69
2022-11-22T11:51:26.337Z,99175.63
2022-11-22T11:54:00.034Z,99169.34
2022-11-22T11:56:34.597Z,99166.22
2022-11-22T11:59:08.033Z,99164.28
2022-11-22T12:01:38.891Z,99163.47
2022-11-22T12:04:07.597Z,99154.84
2022-11-22T12:06:34.393Z,99163.06
2022-11-22T12:09:07.978Z,99163.88
2022-11-22T12:11:44.622Z,99156.00
2022-11-22T12:14:21.190Z,99140.31
2022-11-22T12:16:52.359Z,99137.94
2022-11-22T12:19:29.017Z,99142.25
2022-11-22T12:22:24.290Z,99146.56
2022-11-22T12:25:33.871Z,99144.59
2022-11-22T12:28:21.936Z,99145.78
2022-11-22T12:30:57.307Z,99145.00
2022-11-22T12:33:29.176Z,99132.84
2022-11-22T12:35:56.872Z,99143.03
2022-11-22T12:38:38.690Z,99139.13
2022-11-22T12:41:10.810Z,99140.31
2022-11-22T12:43:53.610Z,99152.09
2022-11-22T12:46:26.722Z,99143.03
2022-11-22T12:48:58.778Z,99138.34
2022-11-22T12:51:38.297Z,99146.97
2022-11-22T12:54:10.326Z,99139.13
2022-11-22T12:56:52.042Z,99143.44
2022-11-22T12:59:29.735Z,99142.66
2022-11-22T13:02:18.395Z,99148.97
2022-11-22T13:04:58.773Z,99159.16
2022-11-22T13:07:52.304Z,99156.78
2022-11-22T13:11:03.450Z,99158.72
2022-11-22T13:13:34.448Z,99146.59
2022-11-22T13:16:06.951Z,99156.00
2022-11-22T13:18:38.643Z,99143.03
2022-11-22T13:21:25.741Z,99161.91
2022-11-22T13:23:58.377Z,99162.69
2022-11-22T13:26:38.742Z,99162.25
2022-11-22T13:29:18.485Z,99148.09
2022-11-22T13:32:13.359Z,99138.72
2022-11-22T13:34:42.381Z,99146.94
2022-11-22T13:37:16.394Z,99144.56
2022-11-22T13:39:47.029Z,99133.16
2022-11-22T13:42:20.285Z,99141.03
2022-11-22T13:44:56.056Z,99141.44
2022-11-22T13:47:22.570Z,99155.97
2022-11-22T13:49:50.477Z,99146.16
2022-11-22T13:52:17.117Z,99142.97
2022-11-22T13:54:46.907Z,99139.44
2022-11-22T13:57:28.209Z,99135.13
2022-11-22T14:00:12.870Z,99128.44
2022-11-22T14:02:40.255Z,99125.28
2022-11-22T14:05:39.658Z,99127.66
2022-11-22T14:08:35.838Z,99120.59
2022-11-22T14:11:20.636Z,99138.63
2022-11-22T14:13:58.816Z,99144.13
2022-11-22T14:16:34.977Z,99135.88
2022-11-22T14:19:10.669Z,99135.06
2022-11-22T14:22:00.855Z,99146.47
2022-11-22T14:25:04.701Z,99133.47
2022-11-22T14:27:36.668Z,99141.00
2022-11-22T14:30:06.205Z,99145.72
2022-11-22T14:33:03.363Z,99135.47
2022-11-22T14:35:32.434Z,99142.53
2022-11-22T14:38:29.076Z,99142.94
2022-11-22T14:41:26.919Z,99142.50
2022-11-22T14:44:22.679Z,99142.94
2022-11-22T14:47:13.062Z,99140.94
2022-11-22T14:49:45.984Z,99142.53
2022-11-22T14:52:21.742Z,99138.19
2022-11-22T14:54:52.144Z,99144.06
2022-11-22T14:57:24.893Z,99149.63
2022-11-22T15:00:15.318Z,99152.72
2022-11-22T15:03:07.903Z,99146.88
2022-11-22T15:09:16.588Z,99151.91
2022-11-22T15:09:31.749Z,99158.63
2022-11-22T15:12:32.115Z,99152.72
2022-11-22T15:59:53.942Z,99199.91
2022-11-22T16:02:22.708Z,99213.22
2022-11-22T16:06:05.900Z,99204.63
2022-11-22T16:07:48.739Z,99213.59
2022-11-22T16:10:33.241Z,99211.25
2022-11-22T16:13:32.701Z,99209.28
2022-11-22T16:16:11.681Z,99211.63
2022-11-22T16:18:42.935Z,99218.69
2022-11-22T16:21:12.178Z,99224.22
2022-11-22T16:23:40.160Z,99232.84
2022-11-22T16:26:29.417Z,99226.16
2022-11-22T16:29:10.974Z,99228.09
2022-11-22T16:31:39.162Z,99231.66
2022-11-22T16:34:13.153Z,99215.94
2022-11-22T16:36:39.805Z,99232.47
2022-11-22T16:39:06.465Z,99233.59
2022-11-22T16:41:34.870Z,99241.09
2022-11-22T16:44:06.399Z,99242.25
2022-11-22T16:46:32.964Z,99232.03
2022-11-22T16:48:59.617Z,99243.44
2022-11-22T16:51:28.656Z,99240.66
2022-11-22T16:53:58.847Z,99240.28
2022-11-22T16:56:27.779Z,99239.47
2022-11-22T16:58:56.352Z,99254.00
2022-11-22T17:01:31.117Z,99246.16
2022-11-22T17:03:58.777Z,99248.47
2022-11-22T17:06:27.836Z,99248.47
2022-11-22T17:08:57.312Z,99245.69
2022-11-22T17:11:26.025Z,99244.47
2022-11-22T17:13:53.374Z,99234.31
2022-11-22T17:16:20.233Z,99239.38
2022-11-22T17:18:47.714Z,99228.34
2022-11-22T17:21:34.278Z,99223.63
2022-11-22T17:24:05.536Z,99223.59
2022-11-22T17:26:32.754Z,99217.28
2022-11-22T17:28:59.295Z,99222.78
2022-11-22T17:31:28.263Z,99222.78
2022-11-22T17:33:58.040Z,99225.13
2022-11-22T17:36:29.076Z,99223.16
2022-11-22T17:38:56.281Z,99218.06
2022-11-22T17:41:23.519Z,99220.81
2022-11-22T17:43:51.044Z,99221.59
2022-11-22T17:46:18.510Z,99215.69
2022-11-22T17:48:51.174Z,99218.41
2022-11-22T17:51:17.769Z,99226.69
2022-11-22T17:53:44.382Z,99233.38
2022-11-22T17:56:11.808Z,99227.88
2022-11-22T17:58:40.129Z,99234.94
2022-11-22T18:01:12.097Z,99238.06
2022-11-22T18:03:39.787Z,99244.38
2022-11-22T18:06:07.243Z,99238.84
2022-11-22T18:08:34.309Z,99241.59
2022-11-22T18:11:02.083Z,99239.69
2022-11-22T18:13:30.637Z,99255.38
2022-11-22T18:16:03.264Z,99250.66
2022-11-22T18:18:55.587Z,99255.00
2022-11-22T18:21:17.753Z,99253.03
2022-11-22T18:23:45.374Z,99258.53
2022-11-22T18:29:35.115Z,99264.03
2022-11-22T18:31:52.262Z,99261.31
2022-11-22T18:34:19.812Z,99260.88
2022-11-22T18:36:55.368Z,99259.69
2022-11-22T18:39:24.267Z,99258.88
2022-11-22T18:41:50.879Z,99259.28
2022-11-22T18:44:18.030Z,99267.53
2022-11-22T18:46:44.865Z,99270.69
2022-11-22T18:49:11.492Z,99267.91
2022-11-22T18:51:38.094Z,99269.09
2022-11-22T18:54:04.823Z,99263.22
2022-11-22T18:56:31.540Z,99276.56
2022-11-22T18:58:58.088Z,99277.72
2022-11-22T19:01:26.369Z,99278.13
2022-11-22T19:03:53.954Z,99276.47
2022-11-22T19:06:20.645Z,99275.34
2022-11-22T19:08:47.383Z,99276.13
2022-11-22T19:11:14.206Z,99279.25
2022-11-22T19:13:42.687Z,99282.38
2022-11-22T19:16:22.117Z,99285.91
2022-11-22T19:18:49.909Z,99274.13
2022-11-22T19:21:19.472Z,99279.97
2022-11-22T19:23:46.983Z,99280.78
2022-11-22T19:26:16.460Z,99287.44
2022-11-22T19:28:43.113Z,99283.91
2022-11-22T19:31:12.387Z,99269.34
2022-11-22T19:33:39.670Z,99281.16
2022-11-22T19:36:20.885Z,99281.91
2022-11-22T19:38:48.106Z,99282.69
2022-11-22T19:41:17.140Z,99278.78
2022-11-22T19:43:44.665Z,99279.13
2022-11-22T19:46:12.256Z,99272.88
2022-11-22T19:48:45.389Z,99280.38
2022-11-22T19:51:15.711Z,99283.16
2022-11-22T19:53:42.745Z,99295.34
2022-11-22T19:56:19.740Z,99286.38
2022-11-22T19:58:51.294Z,99297.78
2022-11-22T20:01:18.707Z,99300.19
2022-11-22T20:03:45.803Z,99313.97
2022-11-22T20:06:14.209Z,99320.28
2022-11-22T20:08:41.338Z,99331.69
2022-11-22T20:11:10.613Z,99327.00
2022-11-22T20:13:41.760Z,99339.97
2022-11-22T20:16:11.574Z,99342.75
2022-11-22T20:18:38.486Z,99366.34
2022-11-22T20:21:06.924Z,99367.56
2022-11-22T20:23:34.149Z,99371.88
2022-11-22T20:26:05.600Z,99378.19
2022-11-22T20:28:32.459Z,99389.97
2022-11-22T20:31:29.935Z,99390.78
2022-11-22T20:33:58.586Z,99397.84
2022-11-22T20:36:27.889Z,99406.88
2022-11-22T20:38:55.569Z,99410.44
2022-11-22T20:41:24.932Z,99403.75
2022-11-22T20:43:52.012Z,99408.84
2022-11-22T20:46:23.561Z,99419.09
2022-11-22T20:48:53.039Z,99414.38
2022-11-22T20:51:24.994Z,99415.13
2022-11-22T20:53:51.951Z,99414.78
2022-11-22T20:56:19.765Z,99418.69
2022-11-22T20:58:46.874Z,99419.09
2022-11-22T21:01:18.759Z,99419.47
2022-11-22T21:03:46.497Z,99429.31
2022-11-22T21:06:14.393Z,99437.94
2022-11-22T21:08:41.787Z,99435.59
2022-11-22T21:11:12.591Z,99437.97
2022-11-22T21:13:39.972Z,99434.81
2022-11-22T21:16:22.171Z,99446.22
2022-11-22T21:19:01.604Z,99452.50
2022-11-22T21:21:29.708Z,99452.09
2022-11-22T21:24:00.062Z,99443.06
2022-11-22T21:26:27.394Z,99455.25
2022-11-22T21:28:54.645Z,99459.16
2022-11-22T21:31:22.515Z,99469.81
2022-11-22T21:33:49.464Z,99469.81
2022-11-22T21:36:16.575Z,99472.16
2022-11-22T21:38:43.359Z,99456.84
2022-11-22T21:41:38.776Z,99469.03
2022-11-22T21:44:01.130Z,99471.78
2022-11-22T21:46:27.775Z,99466.28
2022-11-22T21:48:56.030Z,99482.00
2022-11-22T21:51:25.776Z,99479.63
2022-11-22T21:53:56.348Z,99476.50
2022-11-22T21:56:22.890Z,99489.06
2022-11-22T21:58:49.479Z,99478.06
2022-11-22T22:01:16.621Z,99496.91
2022-11-22T22:03:43.247Z,99490.63
2022-11-22T22:06:09.848Z,99493.78
2022-11-22T22:08:36.538Z,99498.09
2022-11-22T22:11:05.392Z,99502.81
2022-11-22T22:13:32.877Z,99511.47
2022-11-22T22:16:01.443Z,99508.34
2022-11-22T22:18:37.489Z,99509.13
2022-11-22T22:21:07.320Z,99511.09
2022-11-22T22:23:35.763Z,99517.38
2022-11-22T22:26:04.551Z,99525.22
2022-11-22T22:28:33.133Z,99522.47
2022-11-22T22:31:04.729Z,99527.19
2022-11-22T22:33:31.589Z,99524.06
2022-11-22T22:35:59.126Z,99527.59
2022-11-22T22:38:26.238Z,99526.81
2022-11-22T22:40:57.182Z,99527.97
2022-11-22T22:43:24.151Z,99525.22
2022-11-22T22:45:51.604Z,99529.94
2022-11-22T22:48:18.845Z,99535.84
2022-11-22T22:50:46.349Z,99540.94
2022-11-22T22:53:13.034Z,99540.56
2022-11-22T22:55:39.665Z,99544.09
2022-11-22T22:58:10.388Z,99537.81
2022-11-22T23:00:38.689Z,99546.06
2022-11-22T23:03:05.404Z,99546.47
2022-11-22T23:05:32.039Z,99541.34
2022-11-22T23:07:58.625Z,99559.84
2022-11-22T23:10:25.152Z,99563.75
2022-11-22T23:12:52.085Z,99571.63
2022-11-22T23:15:32.931Z,99565.75
2022-11-22T23:18:05.843Z,99562.19
2022-11-22T23:20:32.588Z,99555.53
2022-11-22T23:22:59.144Z,99568.88
2022-11-22T23:25:25.776Z,99567.69
2022-11-22T23:27:52.414Z,99579.53
2022-11-22T23:30:19.106Z,99570.44
2022-11-22T23:32:45.664Z,99577.13
2022-11-22T23:35:12.297Z,99566.91
2022-11-22T23:37:38.828Z,99563.38
2022-11-22T23:40:06.162Z,99579.91
2022-11-22T23:42:32.711Z,99579.53
2022-11-22T23:44:59.311Z,99584.25
2022-11-22T23:47:25.872Z,99579.13
2022-11-22T23:49:52.406Z,99569.66
2022-11-22T23:52:19.061Z,99572.81
2022-11-22T23:54:45.789Z,99579.91
2022-11-22T23:57:12.365Z,99577.50
2022-11-22T23:59:38.959Z,99577.13
